Palou 2 — FAA5132 — position and weather

sailwx.info

Track history (hours):
 
Tides and Currents Weather Stations Pressure Air Temp Water Temp Dewpoint Dewpoint Depression Visibility Wind Speed Wind Dir Waves Ship Positions

Palou 2

Last reported at 2017-Aug-29 13:42 UTC. Time now 2017-Sep-19 15:19 UTC.
Position N 47°35' W 003°02'.
Warning: this ship's position is 21 days out of date.

Length 12 m.

Type: Sailing vessel. MMSI: 227129920.

Date/timePositionNaut miles runAvg speedWind from/ knotsBaromVisibWave heightAir tempDewpointWater temp
2017-Aug-29 13:42N 47°35' W 003°02'0 0.0
2017-Aug-29 13:12N 47°35' W 003°02'0 0.0
2017-Aug-29 12:51N 47°35' W 003°01'0 0.1
2017-Aug-29 12:24N 47°35' W 003°02'2 3.7
2017-Aug-29 12:00N 47°34' W 003°01'1 2.6
2017-Aug-29 11:30N 47°33' W 003°01'3 5.0
2017-Aug-29 11:01N 47°30' W 003°00'2 4.3
2017-Aug-29 10:30N 47°28' W 003°00'2 3.0
2017-Aug-29 09:58N 47°27' W 003°00'1 2.6
2017-Aug-29 09:30N 47°25' W 003°00'1 0.1
2017-Aug-28 19:47N 47°24' W 002°60'0 0.0
2017-Aug-28 17:25N 47°24' W 002°60'0 0.0
2017-Aug-28 16:59N 47°24' W 002°60'  
2017-Aug-26 12:44N 47°24' W 002°60'0 0.8
2017-Aug-26 12:27N 47°24' W 003°00'3 2.7
2017-Aug-26 11:19N 47°27' W 002°59'1 1.5
2017-Aug-26 10:56N 47°27' W 002°59'1 2.5
2017-Aug-26 10:30N 47°28' W 002°58'2 3.7
2017-Aug-26 10:00N 47°30' W 002°56'2 3.9
2017-Aug-26 09:30N 47°31' W 002°55'2 0.0
2017-Aug-24 20:21N 47°33' W 002°54'0 0.0
2017-Aug-24 20:00N 47°33' W 002°54'0 0.0
2017-Aug-24 19:27N 47°33' W 002°54'0 0.0
2017-Aug-24 19:00N 47°33' W 002°54'0 0.0
2017-Aug-24 18:24N 47°33' W 002°54'0 0.0
2017-Aug-24 17:57N 47°33' W 002°54'0 0.0
2017-Aug-24 17:09N 47°33' W 002°54'0 0.2
2017-Aug-24 16:48N 47°33' W 002°54'1 2.8
2017-Aug-24 16:29N 47°32' W 002°55'2 4.5
2017-Aug-24 16:00N 47°30' W 002°56'4 7.0
2017-Aug-24 15:29N 47°27' W 002°58'2 4.6
2017-Aug-24 15:00N 47°25' W 002°59'1 0.0
2017-Aug-23 17:39N 47°24' W 002°59'0 0.1
2017-Aug-23 17:16N 47°24' W 002°59'2 5.1
2017-Aug-23 16:55N 47°26' W 002°59'2 6.0
2017-Aug-23 16:30N 47°28' W 002°59'2 5.0
2017-Aug-23 16:00N 47°31' W 002°59'1 2.9
2017-Aug-23 15:30N 47°32' W 002°60'3 5.1
2017-Aug-23 15:00N 47°35' W 003°01'1 0.3
2017-Aug-23 12:19N 47°35' W 003°02'0 0.0
2017-Aug-23 11:02N 47°35' W 003°02'0 0.0
2017-Aug-23 10:58N 47°35' W 003°02'0 0.0
2017-Aug-23 10:28N 47°35' W 003°02'0 0.0
2017-Aug-23 09:55N 47°35' W 003°02'0 0.0
2017-Aug-23 09:25N 47°35' W 003°02'0 0.0
2017-Aug-23 08:58N 47°35' W 003°02'  
Track history (hours):
 
Tides and Currents Weather Stations Pressure Air Temp Water Temp Dewpoint Dewpoint Depression Visibility Wind Speed Wind Dir Waves Ship Positions

Palou 2

Last reported at 2017-Aug-29 13:42 UTC. Time now 2017-Sep-19 15:19 UTC.
Position N 47°35' W 003°02'.
Warning: this ship's position is 21 days out of date.

Length 12 m.

Type: Sailing vessel. MMSI: 227129920.

Date/timePositionNaut miles runAvg speedWind from/ knotsBaromVisibWave heightAir tempDewpointWater temp
2017-Aug-29 13:42N 47°35' W 003°02'0 0.0
2017-Aug-29 13:12N 47°35' W 003°02'0 0.0
2017-Aug-29 12:51N 47°35' W 003°01'0 0.1
2017-Aug-29 12:24N 47°35' W 003°02'2 3.7
2017-Aug-29 12:00N 47°34' W 003°01'1 2.6
2017-Aug-29 11:30N 47°33' W 003°01'3 5.0
2017-Aug-29 11:01N 47°30' W 003°00'2 4.3
2017-Aug-29 10:30N 47°28' W 003°00'2 3.0
2017-Aug-29 09:58N 47°27' W 003°00'1 2.6
2017-Aug-29 09:30N 47°25' W 003°00'1 0.1
2017-Aug-28 19:47N 47°24' W 002°60'0 0.0
2017-Aug-28 17:25N 47°24' W 002°60'0 0.0
2017-Aug-28 16:59N 47°24' W 002°60'  
2017-Aug-26 12:44N 47°24' W 002°60'0 0.8
2017-Aug-26 12:27N 47°24' W 003°00'3 2.7
2017-Aug-26 11:19N 47°27' W 002°59'1 1.5
2017-Aug-26 10:56N 47°27' W 002°59'1 2.5
2017-Aug-26 10:30N 47°28' W 002°58'2 3.7
2017-Aug-26 10:00N 47°30' W 002°56'2 3.9
2017-Aug-26 09:30N 47°31' W 002°55'2 0.0
2017-Aug-24 20:21N 47°33' W 002°54'0 0.0
2017-Aug-24 20:00N 47°33' W 002°54'0 0.0
2017-Aug-24 19:27N 47°33' W 002°54'0 0.0
2017-Aug-24 19:00N 47°33' W 002°54'0 0.0
2017-Aug-24 18:24N 47°33' W 002°54'0 0.0
2017-Aug-24 17:57N 47°33' W 002°54'0 0.0
2017-Aug-24 17:09N 47°33' W 002°54'0 0.2
2017-Aug-24 16:48N 47°33' W 002°54'1 2.8
2017-Aug-24 16:29N 47°32' W 002°55'2 4.5
2017-Aug-24 16:00N 47°30' W 002°56'4 7.0
2017-Aug-24 15:29N 47°27' W 002°58'2 4.6
2017-Aug-24 15:00N 47°25' W 002°59'1 0.0
2017-Aug-23 17:39N 47°24' W 002°59'0 0.1
2017-Aug-23 17:16N 47°24' W 002°59'2 5.1
2017-Aug-23 16:55N 47°26' W 002°59'2 6.0
2017-Aug-23 16:30N 47°28' W 002°59'2 5.0
2017-Aug-23 16:00N 47°31' W 002°59'1 2.9
2017-Aug-23 15:30N 47°32' W 002°60'3 5.1
2017-Aug-23 15:00N 47°35' W 003°01'1 0.3
2017-Aug-23 12:19N 47°35' W 003°02'0 0.0
2017-Aug-23 11:02N 47°35' W 003°02'0 0.0
2017-Aug-23 10:58N 47°35' W 003°02'0 0.0
2017-Aug-23 10:28N 47°35' W 003°02'0 0.0
2017-Aug-23 09:55N 47°35' W 003°02'0 0.0
2017-Aug-23 09:25N 47°35' W 003°02'0 0.0
2017-Aug-23 08:58N 47°35' W 003°02'  

Dump ship's entire track history